sensor_id;sensor_type;location;lat;lon;timestamp;P1;durP1;ratioP1;P2;durP2;ratioP2
17953;SDS011;9102;53.548;9.926;2023-02-28T00:01:19;5.10;;;1.38;;
17953;SDS011;9102;53.548;9.926;2023-02-28T00:03:46;6.93;;;1.70;;
17953;SDS011;9102;53.548;9.926;2023-02-28T00:06:13;6.25;;;1.80;;
17953;SDS011;9102;53.548;9.926;2023-02-28T00:08:40;3.97;;;1.40;;
17953;SDS011;9102;53.548;9.926;2023-02-28T00:11:07;4.18;;;1.70;;
17953;SDS011;9102;53.548;9.926;2023-02-28T00:13:36;4.82;;;1.60;;
17953;SDS011;9102;53.548;9.926;2023-02-28T00:16:07;5.75;;;1.77;;
17953;SDS011;9102;53.548;9.926;2023-02-28T00:18:35;7.03;;;1.85;;
17953;SDS011;9102;53.548;9.926;2023-02-28T00:21:02;7.75;;;1.80;;
17953;SDS011;9102;53.548;9.926;2023-02-28T00:23:29;6.00;;;1.70;;
17953;SDS011;9102;53.548;9.926;2023-02-28T00:25:56;4.70;;;1.77;;
17953;SDS011;9102;53.548;9.926;2023-02-28T00:28:23;6.18;;;2.00;;
17953;SDS011;9102;53.548;9.926;2023-02-28T00:30:50;5.03;;;1.70;;
17953;SDS011;9102;53.548;9.926;2023-02-28T00:33:19;5.25;;;1.70;;
17953;SDS011;9102;53.548;9.926;2023-02-28T00:35:45;5.95;;;1.60;;
17953;SDS011;9102;53.548;9.926;2023-02-28T00:38:13;9.18;;;2.55;;
17953;SDS011;9102;53.548;9.926;2023-02-28T00:40:40;5.55;;;1.90;;
17953;SDS011;9102;53.548;9.926;2023-02-28T00:43:07;5.68;;;2.00;;
17953;SDS011;9102;53.548;9.926;2023-02-28T00:45:34;6.93;;;2.03;;
17953;SDS011;9102;53.548;9.926;2023-02-28T00:48:01;6.43;;;2.33;;
17953;SDS011;9102;53.548;9.926;2023-02-28T00:50:30;7.60;;;1.92;;
17953;SDS011;9102;53.548;9.926;2023-02-28T00:52:57;4.70;;;2.17;;
17953;SDS011;9102;53.548;9.926;2023-02-28T00:55:24;5.70;;;2.22;;
17953;SDS011;9102;53.548;9.926;2023-02-28T00:57:50;5.63;;;2.00;;
17953;SDS011;9102;53.548;9.926;2023-02-28T01:00:17;6.38;;;2.55;;
17953;SDS011;9102;53.548;9.926;2023-02-28T01:02:44;5.80;;;2.28;;
17953;SDS011;9102;53.548;9.926;2023-02-28T01:05:11;6.18;;;1.95;;
17953;SDS011;9102;53.548;9.926;2023-02-28T01:07:40;5.10;;;2.15;;
17953;SDS011;9102;53.548;9.926;2023-02-28T01:10:07;6.18;;;2.35;;
17953;SDS011;9102;53.548;9.926;2023-02-28T01:12:35;6.93;;;2.35;;
17953;SDS011;9102;53.548;9.926;2023-02-28T01:15:02;6.03;;;2.63;;
17953;SDS011;9102;53.548;9.926;2023-02-28T01:17:29;4.55;;;1.88;;
17953;SDS011;9102;53.548;9.926;2023-02-28T01:19:56;5.95;;;2.22;;
17953;SDS011;9102;53.548;9.926;2023-02-28T01:22:23;6.45;;;2.60;;
17953;SDS011;9102;53.548;9.926;2023-02-28T01:24:51;6.72;;;2.75;;
17953;SDS011;9102;53.548;9.926;2023-02-28T01:27:18;8.40;;;2.30;;
17953;SDS011;9102;53.548;9.926;2023-02-28T01:29:44;8.43;;;2.55;;
17953;SDS011;9102;53.548;9.926;2023-02-28T01:32:12;8.65;;;3.67;;
17953;SDS011;9102;53.548;9.926;2023-02-28T01:34:38;7.22;;;3.20;;
17953;SDS011;9102;53.548;9.926;2023-02-28T01:37:05;6.93;;;3.20;;
17953;SDS011;9102;53.548;9.926;2023-02-28T01:39:32;8.85;;;3.58;;
17953;SDS011;9102;53.548;9.926;2023-02-28T01:42:00;5.38;;;2.97;;
17953;SDS011;9102;53.548;9.926;2023-02-28T01:47:28;7.38;;;2.38;;
17953;SDS011;9102;53.548;9.926;2023-02-28T01:49:59;9.68;;;2.80;;
17953;SDS011;9102;53.548;9.926;2023-02-28T01:52:28;7.03;;;3.03;;
17953;SDS011;9102;53.548;9.926;2023-02-28T01:54:56;9.02;;;2.90;;
17953;SDS011;9102;53.548;9.926;2023-02-28T02:00:50;6.20;;;2.78;;
17953;SDS011;9102;53.548;9.926;2023-02-28T02:03:18;8.65;;;3.47;;
17953;SDS011;9102;53.548;9.926;2023-02-28T02:05:46;7.32;;;2.92;;
17953;SDS011;9102;53.548;9.926;2023-02-28T02:08:13;7.85;;;2.95;;
17953;SDS011;9102;53.548;9.926;2023-02-28T02:10:44;4.50;;;2.63;;
17953;SDS011;9102;53.548;9.926;2023-02-28T02:13:19;6.30;;;3.30;;
17953;SDS011;9102;53.548;9.926;2023-02-28T02:15:57;8.70;;;3.67;;
17953;SDS011;9102;53.548;9.926;2023-02-28T02:18:31;7.30;;;3.50;;
17953;SDS011;9102;53.548;9.926;2023-02-28T02:24:20;6.45;;;2.92;;
17953;SDS011;9102;53.548;9.926;2023-02-28T02:27:20;9.43;;;3.38;;
17953;SDS011;9102;53.548;9.926;2023-02-28T02:33:14;8.52;;;2.97;;
17953;SDS011;9102;53.548;9.926;2023-02-28T02:35:54;9.75;;;3.72;;
17953;SDS011;9102;53.548;9.926;2023-02-28T02:38:29;5.97;;;2.97;;
17953;SDS011;9102;53.548;9.926;2023-02-28T02:41:02;6.82;;;3.08;;
17953;SDS011;9102;53.548;9.926;2023-02-28T02:43:35;8.98;;;2.90;;
17953;SDS011;9102;53.548;9.926;2023-02-28T02:46:08;6.78;;;2.80;;
17953;SDS011;9102;53.548;9.926;2023-02-28T02:48:38;8.07;;;3.53;;
17953;SDS011;9102;53.548;9.926;2023-02-28T02:51:09;8.27;;;3.08;;
17953;SDS011;9102;53.548;9.926;2023-02-28T02:53:41;7.22;;;3.92;;
17953;SDS011;9102;53.548;9.926;2023-02-28T02:56:11;7.88;;;3.28;;
17953;SDS011;9102;53.548;9.926;2023-02-28T02:58:40;7.95;;;3.60;;
17953;SDS011;9102;53.548;9.926;2023-02-28T03:01:10;10.25;;;3.88;;
17953;SDS011;9102;53.548;9.926;2023-02-28T03:03:40;7.30;;;3.33;;
17953;SDS011;9102;53.548;9.926;2023-02-28T03:06:09;10.27;;;3.70;;
17953;SDS011;9102;53.548;9.926;2023-02-28T03:08:37;7.00;;;3.05;;
17953;SDS011;9102;53.548;9.926;2023-02-28T03:11:05;11.27;;;4.15;;
17953;SDS011;9102;53.548;9.926;2023-02-28T03:13:41;7.90;;;3.30;;
17953;SDS011;9102;53.548;9.926;2023-02-28T03:19:10;10.50;;;4.07;;
17953;SDS011;9102;53.548;9.926;2023-02-28T03:21:56;9.13;;;4.15;;
17953;SDS011;9102;53.548;9.926;2023-02-28T03:24:33;11.43;;;4.00;;
17953;SDS011;9102;53.548;9.926;2023-02-28T03:27:09;9.40;;;4.15;;
17953;SDS011;9102;53.548;9.926;2023-02-28T03:29:42;9.82;;;4.20;;
17953;SDS011;9102;53.548;9.926;2023-02-28T03:32:16;10.48;;;4.25;;
17953;SDS011;9102;53.548;9.926;2023-02-28T03:34:48;10.10;;;4.57;;
17953;SDS011;9102;53.548;9.926;2023-02-28T03:37:19;8.30;;;4.15;;
17953;SDS011;9102;53.548;9.926;2023-02-28T03:39:49;10.80;;;4.57;;
17953;SDS011;9102;53.548;9.926;2023-02-28T03:42:20;10.80;;;4.40;;
17953;SDS011;9102;53.548;9.926;2023-02-28T03:44:50;12.70;;;5.57;;
17953;SDS011;9102;53.548;9.926;2023-02-28T03:47:21;9.07;;;4.38;;
17953;SDS011;9102;53.548;9.926;2023-02-28T03:49:52;6.53;;;4.20;;
17953;SDS011;9102;53.548;9.926;2023-02-28T03:52:24;10.80;;;5.00;;
17953;SDS011;9102;53.548;9.926;2023-02-28T03:54:55;10.23;;;4.60;;
17953;SDS011;9102;53.548;9.926;2023-02-28T03:57:30;9.90;;;4.70;;
17953;SDS011;9102;53.548;9.926;2023-02-28T04:00:05;14.02;;;5.45;;
17953;SDS011;9102;53.548;9.926;2023-02-28T04:02:34;10.85;;;5.05;;
17953;SDS011;9102;53.548;9.926;2023-02-28T04:05:01;20.25;;;6.20;;
17953;SDS011;9102;53.548;9.926;2023-02-28T04:07:30;15.70;;;5.88;;
17953;SDS011;9102;53.548;9.926;2023-02-28T04:09:57;11.88;;;5.47;;
17953;SDS011;9102;53.548;9.926;2023-02-28T04:12:24;15.32;;;5.47;;
17953;SDS011;9102;53.548;9.926;2023-02-28T04:14:51;12.73;;;5.47;;
17953;SDS011;9102;53.548;9.926;2023-02-28T04:17:18;13.18;;;5.22;;
17953;SDS011;9102;53.548;9.926;2023-02-28T04:19:45;17.00;;;5.45;;
17953;SDS011;9102;53.548;9.926;2023-02-28T04:22:11;8.68;;;4.75;;
17953;SDS011;9102;53.548;9.926;2023-02-28T04:24:39;16.10;;;5.80;;
17953;SDS011;9102;53.548;9.926;2023-02-28T04:27:07;17.23;;;5.72;;
17953;SDS011;9102;53.548;9.926;2023-02-28T04:29:34;8.07;;;5.20;;
17953;SDS011;9102;53.548;9.926;2023-02-28T04:32:01;11.93;;;5.10;;
17953;SDS011;9102;53.548;9.926;2023-02-28T04:34:29;11.30;;;5.63;;
17953;SDS011;9102;53.548;9.926;2023-02-28T04:36:57;14.18;;;5.78;;
17953;SDS011;9102;53.548;9.926;2023-02-28T04:39:25;12.90;;;6.10;;
17953;SDS011;9102;53.548;9.926;2023-02-28T04:41:53;14.85;;;5.63;;
17953;SDS011;9102;53.548;9.926;2023-02-28T04:44:20;11.95;;;5.70;;
17953;SDS011;9102;53.548;9.926;2023-02-28T04:46:48;12.50;;;5.97;;
17953;SDS011;9102;53.548;9.926;2023-02-28T04:49:15;15.48;;;6.63;;
17953;SDS011;9102;53.548;9.926;2023-02-28T04:51:42;12.68;;;5.95;;
17953;SDS011;9102;53.548;9.926;2023-02-28T04:54:08;13.93;;;6.03;;
17953;SDS011;9102;53.548;9.926;2023-02-28T04:56:36;11.73;;;5.82;;
17953;SDS011;9102;53.548;9.926;2023-02-28T04:59:04;13.20;;;6.30;;
17953;SDS011;9102;53.548;9.926;2023-02-28T05:01:31;11.88;;;6.47;;
17953;SDS011;9102;53.548;9.926;2023-02-28T05:04:02;11.80;;;6.13;;
17953;SDS011;9102;53.548;9.926;2023-02-28T05:06:30;9.75;;;5.97;;
17953;SDS011;9102;53.548;9.926;2023-02-28T05:08:57;20.95;;;7.97;;
17953;SDS011;9102;53.548;9.926;2023-02-28T05:11:25;11.00;;;6.35;;
17953;SDS011;9102;53.548;9.926;2023-02-28T05:13:58;13.15;;;6.13;;
17953;SDS011;9102;53.548;9.926;2023-02-28T05:16:26;12.18;;;5.55;;
17953;SDS011;9102;53.548;9.926;2023-02-28T05:18:53;12.48;;;6.07;;
17953;SDS011;9102;53.548;9.926;2023-02-28T05:21:22;15.98;;;6.30;;
17953;SDS011;9102;53.548;9.926;2023-02-28T05:23:52;13.73;;;6.65;;
17953;SDS011;9102;53.548;9.926;2023-02-28T05:26:19;11.55;;;5.78;;
17953;SDS011;9102;53.548;9.926;2023-02-28T05:28:46;12.55;;;6.22;;
17953;SDS011;9102;53.548;9.926;2023-02-28T05:31:13;11.40;;;5.55;;
17953;SDS011;9102;53.548;9.926;2023-02-28T05:33:42;12.05;;;5.60;;
17953;SDS011;9102;53.548;9.926;2023-02-28T05:36:08;17.58;;;7.60;;
17953;SDS011;9102;53.548;9.926;2023-02-28T05:38:35;16.15;;;6.68;;
17953;SDS011;9102;53.548;9.926;2023-02-28T05:41:04;15.52;;;6.45;;
17953;SDS011;9102;53.548;9.926;2023-02-28T05:43:33;12.18;;;6.38;;
17953;SDS011;9102;53.548;9.926;2023-02-28T05:46:02;10.80;;;6.32;;
17953;SDS011;9102;53.548;9.926;2023-02-28T05:48:30;13.77;;;6.40;;
17953;SDS011;9102;53.548;9.926;2023-02-28T05:50:58;13.73;;;6.78;;
17953;SDS011;9102;53.548;9.926;2023-02-28T05:53:34;17.80;;;6.72;;
17953;SDS011;9102;53.548;9.926;2023-02-28T05:56:01;13.40;;;6.75;;
17953;SDS011;9102;53.548;9.926;2023-02-28T05:58:28;14.57;;;6.95;;
17953;SDS011;9102;53.548;9.926;2023-02-28T06:00:56;17.30;;;8.48;;
17953;SDS011;9102;53.548;9.926;2023-02-28T06:03:23;15.70;;;7.63;;
17953;SDS011;9102;53.548;9.926;2023-02-28T06:05:50;17.20;;;7.80;;
17953;SDS011;9102;53.548;9.926;2023-02-28T06:08:19;13.05;;;6.70;;
17953;SDS011;9102;53.548;9.926;2023-02-28T06:10:45;16.20;;;7.28;;
17953;SDS011;9102;53.548;9.926;2023-02-28T06:13:12;17.83;;;7.72;;
17953;SDS011;9102;53.548;9.926;2023-02-28T06:15:39;13.20;;;7.45;;
17953;SDS011;9102;53.548;9.926;2023-02-28T06:18:07;15.38;;;7.78;;
17953;SDS011;9102;53.548;9.926;2023-02-28T06:20:34;13.32;;;7.40;;
17953;SDS011;9102;53.548;9.926;2023-02-28T06:23:01;16.95;;;7.15;;
17953;SDS011;9102;53.548;9.926;2023-02-28T06:25:29;15.25;;;7.25;;
17953;SDS011;9102;53.548;9.926;2023-02-28T06:27:56;15.55;;;8.20;;
17953;SDS011;9102;53.548;9.926;2023-02-28T06:30:23;17.10;;;7.65;;
17953;SDS011;9102;53.548;9.926;2023-02-28T06:32:52;19.48;;;7.72;;
17953;SDS011;9102;53.548;9.926;2023-02-28T06:35:19;26.60;;;8.55;;
17953;SDS011;9102;53.548;9.926;2023-02-28T06:37:46;17.10;;;8.10;;
17953;SDS011;9102;53.548;9.926;2023-02-28T06:40:13;18.52;;;8.23;;
17953;SDS011;9102;53.548;9.926;2023-02-28T06:42:41;21.35;;;8.07;;
17953;SDS011;9102;53.548;9.926;2023-02-28T06:45:08;15.70;;;8.15;;
17953;SDS011;9102;53.548;9.926;2023-02-28T06:47:37;16.05;;;7.78;;
17953;SDS011;9102;53.548;9.926;2023-02-28T06:50:05;18.42;;;7.50;;
17953;SDS011;9102;53.548;9.926;2023-02-28T06:52:33;15.88;;;7.63;;
17953;SDS011;9102;53.548;9.926;2023-02-28T06:55:01;16.10;;;6.72;;
17953;SDS011;9102;53.548;9.926;2023-02-28T06:57:28;16.98;;;7.38;;
17953;SDS011;9102;53.548;9.926;2023-02-28T06:59:57;14.43;;;7.20;;
17953;SDS011;9102;53.548;9.926;2023-02-28T07:02:25;12.43;;;6.45;;
17953;SDS011;9102;53.548;9.926;2023-02-28T07:04:52;20.73;;;7.45;;
17953;SDS011;9102;53.548;9.926;2023-02-28T07:07:19;16.92;;;7.55;;
17953;SDS011;9102;53.548;9.926;2023-02-28T07:09:46;15.52;;;7.28;;
17953;SDS011;9102;53.548;9.926;2023-02-28T07:12:13;15.23;;;7.00;;
17953;SDS011;9102;53.548;9.926;2023-02-28T07:14:40;17.63;;;7.90;;
17953;SDS011;9102;53.548;9.926;2023-02-28T07:17:08;26.13;;;8.23;;
17953;SDS011;9102;53.548;9.926;2023-02-28T07:19:37;18.95;;;7.78;;
17953;SDS011;9102;53.548;9.926;2023-02-28T07:22:04;17.77;;;8.00;;
17953;SDS011;9102;53.548;9.926;2023-02-28T07:24:31;18.38;;;7.55;;
17953;SDS011;9102;53.548;9.926;2023-02-28T07:26:58;19.60;;;8.10;;
17953;SDS011;9102;53.548;9.926;2023-02-28T07:29:25;21.02;;;8.10;;
17953;SDS011;9102;53.548;9.926;2023-02-28T07:31:52;20.17;;;7.82;;
17953;SDS011;9102;53.548;9.926;2023-02-28T07:34:21;19.75;;;8.70;;
17953;SDS011;9102;53.548;9.926;2023-02-28T07:36:47;25.88;;;8.88;;
17953;SDS011;9102;53.548;9.926;2023-02-28T07:39:18;29.65;;;9.43;;
17953;SDS011;9102;53.548;9.926;2023-02-28T07:41:45;19.00;;;8.70;;
17953;SDS011;9102;53.548;9.926;2023-02-28T07:44:12;26.40;;;10.48;;
17953;SDS011;9102;53.548;9.926;2023-02-28T07:46:39;22.73;;;8.82;;
17953;SDS011;9102;53.548;9.926;2023-02-28T07:49:06;18.42;;;8.20;;
17953;SDS011;9102;53.548;9.926;2023-02-28T07:51:34;19.23;;;8.02;;
17953;SDS011;9102;53.548;9.926;2023-02-28T07:54:01;30.27;;;9.68;;
17953;SDS011;9102;53.548;9.926;2023-02-28T07:56:28;21.35;;;7.00;;
17953;SDS011;9102;53.548;9.926;2023-02-28T07:58:55;15.50;;;7.40;;
17953;SDS011;9102;53.548;9.926;2023-02-28T08:01:22;10.68;;;5.43;;
17953;SDS011;9102;53.548;9.926;2023-02-28T08:03:50;14.30;;;4.95;;
17953;SDS011;9102;53.548;9.926;2023-02-28T08:06:17;9.75;;;4.57;;
17953;SDS011;9102;53.548;9.926;2023-02-28T08:08:46;11.77;;;5.07;;
17953;SDS011;9102;53.548;9.926;2023-02-28T08:11:13;13.77;;;5.63;;
17953;SDS011;9102;53.548;9.926;2023-02-28T08:13:41;12.82;;;4.97;;
17953;SDS011;9102;53.548;9.926;2023-02-28T08:16:09;12.65;;;4.18;;
17953;SDS011;9102;53.548;9.926;2023-02-28T08:18:36;8.50;;;3.13;;
17953;SDS011;9102;53.548;9.926;2023-02-28T08:21:06;8.70;;;2.90;;
17953;SDS011;9102;53.548;9.926;2023-02-28T08:23:33;7.13;;;1.83;;
17953;SDS011;9102;53.548;9.926;2023-02-28T08:26:02;4.30;;;2.47;;
17953;SDS011;9102;53.548;9.926;2023-02-28T08:28:30;7.05;;;2.15;;
17953;SDS011;9102;53.548;9.926;2023-02-28T08:30:56;6.07;;;2.70;;
17953;SDS011;9102;53.548;9.926;2023-02-28T08:33:24;7.97;;;2.83;;
17953;SDS011;9102;53.548;9.926;2023-02-28T08:35:53;7.85;;;2.83;;
17953;SDS011;9102;53.548;9.926;2023-02-28T08:38:20;8.52;;;2.92;;
17953;SDS011;9102;53.548;9.926;2023-02-28T08:40:47;10.27;;;2.95;;
17953;SDS011;9102;53.548;9.926;2023-02-28T08:43:15;8.68;;;3.22;;
17953;SDS011;9102;53.548;9.926;2023-02-28T08:45:42;7.88;;;2.95;;
17953;SDS011;9102;53.548;9.926;2023-02-28T08:48:08;5.88;;;2.92;;
17953;SDS011;9102;53.548;9.926;2023-02-28T08:50:35;4.65;;;2.47;;
17953;SDS011;9102;53.548;9.926;2023-02-28T08:53:02;6.78;;;2.80;;
17953;SDS011;9102;53.548;9.926;2023-02-28T08:55:29;5.60;;;2.75;;
17953;SDS011;9102;53.548;9.926;2023-02-28T08:57:56;5.50;;;3.40;;
17953;SDS011;9102;53.548;9.926;2023-02-28T09:00:24;7.35;;;3.30;;
17953;SDS011;9102;53.548;9.926;2023-02-28T09:02:51;7.03;;;3.53;;
17953;SDS011;9102;53.548;9.926;2023-02-28T09:05:19;8.05;;;3.20;;
17953;SDS011;9102;53.548;9.926;2023-02-28T09:07:46;10.60;;;3.25;;
17953;SDS011;9102;53.548;9.926;2023-02-28T09:10:13;7.05;;;2.78;;
17953;SDS011;9102;53.548;9.926;2023-02-28T09:12:39;5.53;;;2.83;;
17953;SDS011;9102;53.548;9.926;2023-02-28T09:15:07;9.80;;;3.13;;
17953;SDS011;9102;53.548;9.926;2023-02-28T09:17:36;4.47;;;2.10;;
17953;SDS011;9102;53.548;9.926;2023-02-28T09:20:03;5.63;;;1.90;;
17953;SDS011;9102;53.548;9.926;2023-02-28T09:22:31;4.55;;;1.73;;
17953;SDS011;9102;53.548;9.926;2023-02-28T09:24:58;3.95;;;2.20;;
17953;SDS011;9102;53.548;9.926;2023-02-28T09:27:24;6.60;;;2.03;;
17953;SDS011;9102;53.548;9.926;2023-02-28T09:29:51;4.05;;;1.95;;
17953;SDS011;9102;53.548;9.926;2023-02-28T09:32:18;4.72;;;1.90;;
17953;SDS011;9102;53.548;9.926;2023-02-28T09:34:46;2.90;;;1.60;;
17953;SDS011;9102;53.548;9.926;2023-02-28T09:37:13;2.40;;;1.30;;
17953;SDS011;9102;53.548;9.926;2023-02-28T09:39:39;2.80;;;1.42;;
17953;SDS011;9102;53.548;9.926;2023-02-28T09:42:11;2.63;;;1.13;;
17953;SDS011;9102;53.548;9.926;2023-02-28T09:44:46;1.85;;;0.98;;
17953;SDS011;9102;53.548;9.926;2023-02-28T09:47:17;2.50;;;0.98;;
17953;SDS011;9102;53.548;9.926;2023-02-28T09:49:53;3.88;;;1.15;;
17953;SDS011;9102;53.548;9.926;2023-02-28T09:52:24;2.55;;;1.10;;
17953;SDS011;9102;53.548;9.926;2023-02-28T09:54:56;6.32;;;1.35;;
17953;SDS011;9102;53.548;9.926;2023-02-28T09:57:27;2.10;;;1.20;;
17953;SDS011;9102;53.548;9.926;2023-02-28T10:00:05;4.13;;;1.70;;
17953;SDS011;9102;53.548;9.926;2023-02-28T10:09:00;2.42;;;1.00;;
17953;SDS011;9102;53.548;9.926;2023-02-28T10:11:29;2.67;;;1.00;;
17953;SDS011;9102;53.548;9.926;2023-02-28T10:14:00;3.58;;;1.02;;
17953;SDS011;9102;53.548;9.926;2023-02-28T10:16:31;1.88;;;0.63;;
17953;SDS011;9102;53.548;9.926;2023-02-28T10:19:02;2.55;;;0.80;;
17953;SDS011;9102;53.548;9.926;2023-02-28T10:21:34;4.18;;;0.90;;
17953;SDS011;9102;53.548;9.926;2023-02-28T10:24:09;3.67;;;1.00;;
17953;SDS011;9102;53.548;9.926;2023-02-28T10:26:45;3.10;;;0.68;;
17953;SDS011;9102;53.548;9.926;2023-02-28T10:29:13;2.25;;;0.70;;
17953;SDS011;9102;53.548;9.926;2023-02-28T10:31:40;1.60;;;0.70;;
17953;SDS011;9102;53.548;9.926;2023-02-28T10:34:07;3.17;;;0.82;;
17953;SDS011;9102;53.548;9.926;2023-02-28T10:36:38;6.10;;;1.63;;
17953;SDS011;9102;53.548;9.926;2023-02-28T10:42:18;3.20;;;1.63;;
17953;SDS011;9102;53.548;9.926;2023-02-28T10:44:47;4.15;;;1.75;;
17953;SDS011;9102;53.548;9.926;2023-02-28T10:47:14;4.60;;;1.42;;
17953;SDS011;9102;53.548;9.926;2023-02-28T10:49:46;5.72;;;1.35;;
17953;SDS011;9102;53.548;9.926;2023-02-28T10:52:14;3.45;;;1.50;;
17953;SDS011;9102;53.548;9.926;2023-02-28T10:57:49;3.47;;;1.60;;
17953;SDS011;9102;53.548;9.926;2023-02-28T11:00:18;4.40;;;1.40;;
17953;SDS011;9102;53.548;9.926;2023-02-28T11:02:47;2.75;;;1.25;;
17953;SDS011;9102;53.548;9.926;2023-02-28T11:05:24;3.60;;;1.45;;
17953;SDS011;9102;53.548;9.926;2023-02-28T11:07:53;2.38;;;1.10;;
17953;SDS011;9102;53.548;9.926;2023-02-28T11:10:23;5.47;;;1.30;;
17953;SDS011;9102;53.548;9.926;2023-02-28T11:12:55;3.90;;;1.58;;
17953;SDS011;9102;53.548;9.926;2023-02-28T11:15:23;6.68;;;1.70;;
17953;SDS011;9102;53.548;9.926;2023-02-28T11:17:55;2.90;;;1.60;;
17953;SDS011;9102;53.548;9.926;2023-02-28T11:20:25;4.43;;;1.33;;
17953;SDS011;9102;53.548;9.926;2023-02-28T11:22:54;3.03;;;1.60;;
17953;SDS011;9102;53.548;9.926;2023-02-28T11:25:24;2.50;;;1.45;;
17953;SDS011;9102;53.548;9.926;2023-02-28T11:27:55;8.73;;;1.40;;
17953;SDS011;9102;53.548;9.926;2023-02-28T11:30:27;5.15;;;1.42;;
17953;SDS011;9102;53.548;9.926;2023-02-28T11:32:56;3.35;;;1.60;;
17953;SDS011;9102;53.548;9.926;2023-02-28T11:35:24;6.13;;;1.70;;
17953;SDS011;9102;53.548;9.926;2023-02-28T11:37:54;5.68;;;1.30;;
17953;SDS011;9102;53.548;9.926;2023-02-28T11:40:26;6.55;;;1.77;;
17953;SDS011;9102;53.548;9.926;2023-02-28T11:43:05;3.70;;;1.30;;
17953;SDS011;9102;53.548;9.926;2023-02-28T11:45:40;4.43;;;1.80;;
17953;SDS011;9102;53.548;9.926;2023-02-28T11:48:19;3.00;;;1.50;;
17953;SDS011;9102;53.548;9.926;2023-02-28T11:50:52;6.28;;;1.75;;
17953;SDS011;9102;53.548;9.926;2023-02-28T11:53:32;3.15;;;1.50;;
17953;SDS011;9102;53.548;9.926;2023-02-28T11:56:10;4.13;;;1.63;;
17953;SDS011;9102;53.548;9.926;2023-02-28T11:58:49;4.85;;;1.55;;
17953;SDS011;9102;53.548;9.926;2023-02-28T12:01:36;3.75;;;1.40;;
17953;SDS011;9102;53.548;9.926;2023-02-28T12:04:22;4.80;;;1.40;;
17953;SDS011;9102;53.548;9.926;2023-02-28T12:06:55;3.20;;;1.20;;
17953;SDS011;9102;53.548;9.926;2023-02-28T12:09:35;4.18;;;1.42;;
17953;SDS011;9102;53.548;9.926;2023-02-28T12:12:18;6.07;;;1.65;;
17953;SDS011;9102;53.548;9.926;2023-02-28T12:15:05;5.90;;;1.80;;
17953;SDS011;9102;53.548;9.926;2023-02-28T12:17:51;5.00;;;2.05;;
17953;SDS011;9102;53.548;9.926;2023-02-28T12:20:31;5.05;;;1.73;;
17953;SDS011;9102;53.548;9.926;2023-02-28T12:23:10;5.25;;;1.60;;
17953;SDS011;9102;53.548;9.926;2023-02-28T12:26:05;4.25;;;1.70;;
17953;SDS011;9102;53.548;9.926;2023-02-28T12:28:42;4.80;;;2.08;;
17953;SDS011;9102;53.548;9.926;2023-02-28T12:31:14;7.57;;;1.60;;
17953;SDS011;9102;53.548;9.926;2023-02-28T12:33:45;6.05;;;1.80;;
17953;SDS011;9102;53.548;9.926;2023-02-28T12:36:14;7.07;;;2.30;;
17953;SDS011;9102;53.548;9.926;2023-02-28T12:38:47;3.47;;;1.73;;
17953;SDS011;9102;53.548;9.926;2023-02-28T12:41:18;6.07;;;1.92;;
17953;SDS011;9102;53.548;9.926;2023-02-28T12:43:51;7.55;;;1.98;;
17953;SDS011;9102;53.548;9.926;2023-02-28T12:46:24;5.38;;;1.70;;
17953;SDS011;9102;53.548;9.926;2023-02-28T12:48:56;6.15;;;1.95;;
17953;SDS011;9102;53.548;9.926;2023-02-28T12:51:25;5.72;;;1.70;;
17953;SDS011;9102;53.548;9.926;2023-02-28T12:53:55;8.02;;;2.20;;
17953;SDS011;9102;53.548;9.926;2023-02-28T12:56:33;6.13;;;1.70;;
17953;SDS011;9102;53.548;9.926;2023-02-28T12:59:12;5.43;;;1.77;;
17953;SDS011;9102;53.548;9.926;2023-02-28T13:02:00;3.08;;;1.80;;
17953;SDS011;9102;53.548;9.926;2023-02-28T13:04:44;5.35;;;1.90;;
17953;SDS011;9102;53.548;9.926;2023-02-28T13:07:30;5.93;;;1.77;;
17953;SDS011;9102;53.548;9.926;2023-02-28T13:10:14;7.15;;;2.47;;
17953;SDS011;9102;53.548;9.926;2023-02-28T13:12:47;5.22;;;1.48;;
17953;SDS011;9102;53.548;9.926;2023-02-28T13:15:18;6.68;;;1.75;;
17953;SDS011;9102;53.548;9.926;2023-02-28T13:17:49;9.25;;;1.95;;
17953;SDS011;9102;53.548;9.926;2023-02-28T13:20:18;7.25;;;1.73;;
17953;SDS011;9102;53.548;9.926;2023-02-28T13:22:47;3.28;;;1.48;;
17953;SDS011;9102;53.548;9.926;2023-02-28T13:32:08;2.60;;;1.40;;
17953;SDS011;9102;53.548;9.926;2023-02-28T13:34:39;3.20;;;1.73;;
17953;SDS011;9102;53.548;9.926;2023-02-28T13:40:28;8.38;;;1.83;;
17953;SDS011;9102;53.548;9.926;2023-02-28T13:43:01;6.50;;;1.60;;
17953;SDS011;9102;53.548;9.926;2023-02-28T13:45:29;12.82;;;2.90;;
17953;SDS011;9102;53.548;9.926;2023-02-28T13:48:03;10.65;;;4.05;;
17953;SDS011;9102;53.548;9.926;2023-02-28T13:50:32;9.02;;;2.53;;
17953;SDS011;9102;53.548;9.926;2023-02-28T13:56:03;5.40;;;2.50;;
17953;SDS011;9102;53.548;9.926;2023-02-28T13:58:39;7.45;;;2.10;;
17953;SDS011;9102;53.548;9.926;2023-02-28T14:01:16;2.42;;;1.40;;
17953;SDS011;9102;53.548;9.926;2023-02-28T14:04:01;3.50;;;1.52;;
17953;SDS011;9102;53.548;9.926;2023-02-28T14:06:48;9.70;;;1.90;;
17953;SDS011;9102;53.548;9.926;2023-02-28T14:09:18;4.53;;;1.63;;
17953;SDS011;9102;53.548;9.926;2023-02-28T14:11:49;4.10;;;1.60;;
17953;SDS011;9102;53.548;9.926;2023-02-28T14:17:21;4.47;;;1.65;;
17953;SDS011;9102;53.548;9.926;2023-02-28T14:19:51;3.80;;;1.50;;
17953;SDS011;9102;53.548;9.926;2023-02-28T14:22:24;6.90;;;1.70;;
17953;SDS011;9102;53.548;9.926;2023-02-28T14:25:14;5.63;;;1.58;;
17953;SDS011;9102;53.548;9.926;2023-02-28T14:27:49;6.82;;;2.05;;
17953;SDS011;9102;53.548;9.926;2023-02-28T14:30:29;4.28;;;1.83;;
17953;SDS011;9102;53.548;9.926;2023-02-28T14:33:20;4.70;;;1.67;;
17953;SDS011;9102;53.548;9.926;2023-02-28T14:38:39;4.13;;;1.52;;
17953;SDS011;9102;53.548;9.926;2023-02-28T14:41:13;5.57;;;1.92;;
17953;SDS011;9102;53.548;9.926;2023-02-28T14:43:48;6.90;;;1.70;;
17953;SDS011;9102;53.548;9.926;2023-02-28T14:46:20;5.28;;;1.40;;
17953;SDS011;9102;53.548;9.926;2023-02-28T14:48:50;4.28;;;1.70;;
17953;SDS011;9102;53.548;9.926;2023-02-28T14:51:22;5.57;;;1.70;;
17953;SDS011;9102;53.548;9.926;2023-02-28T14:53:50;3.05;;;1.83;;
17953;SDS011;9102;53.548;9.926;2023-02-28T14:56:23;6.10;;;1.90;;
17953;SDS011;9102;53.548;9.926;2023-02-28T14:58:53;6.38;;;2.00;;
17953;SDS011;9102;53.548;9.926;2023-02-28T15:01:21;5.65;;;2.38;;
17953;SDS011;9102;53.548;9.926;2023-02-28T15:03:57;6.93;;;2.40;;
17953;SDS011;9102;53.548;9.926;2023-02-28T15:06:27;4.68;;;2.65;;
17953;SDS011;9102;53.548;9.926;2023-02-28T15:09:08;3.97;;;1.98;;
17953;SDS011;9102;53.548;9.926;2023-02-28T15:11:37;4.03;;;1.88;;
17953;SDS011;9102;53.548;9.926;2023-02-28T15:14:05;7.25;;;1.90;;
17953;SDS011;9102;53.548;9.926;2023-02-28T15:16:33;8.07;;;2.17;;
17953;SDS011;9102;53.548;9.926;2023-02-28T15:19:04;4.70;;;1.90;;
17953;SDS011;9102;53.548;9.926;2023-02-28T15:21:35;6.20;;;2.05;;
17953;SDS011;9102;53.548;9.926;2023-02-28T15:24:04;8.48;;;2.30;;
17953;SDS011;9102;53.548;9.926;2023-02-28T15:26:36;5.28;;;2.25;;
17953;SDS011;9102;53.548;9.926;2023-02-28T15:29:06;5.57;;;1.85;;
17953;SDS011;9102;53.548;9.926;2023-02-28T15:31:39;5.07;;;2.10;;
17953;SDS011;9102;53.548;9.926;2023-02-28T15:34:12;7.22;;;2.03;;
17953;SDS011;9102;53.548;9.926;2023-02-28T15:36:47;7.82;;;2.58;;
17953;SDS011;9102;53.548;9.926;2023-02-28T15:39:19;9.70;;;2.28;;
17953;SDS011;9102;53.548;9.926;2023-02-28T15:41:47;9.85;;;2.17;;
17953;SDS011;9102;53.548;9.926;2023-02-28T15:44:14;4.82;;;2.08;;
17953;SDS011;9102;53.548;9.926;2023-02-28T15:46:55;8.15;;;2.35;;
17953;SDS011;9102;53.548;9.926;2023-02-28T15:49:26;7.75;;;2.40;;
17953;SDS011;9102;53.548;9.926;2023-02-28T15:51:55;6.43;;;2.15;;
17953;SDS011;9102;53.548;9.926;2023-02-28T15:54:27;4.60;;;2.20;;
17953;SDS011;9102;53.548;9.926;2023-02-28T15:56:57;4.65;;;1.77;;
17953;SDS011;9102;53.548;9.926;2023-02-28T15:59:28;7.45;;;1.92;;
17953;SDS011;9102;53.548;9.926;2023-02-28T16:04:58;6.75;;;2.30;;
17953;SDS011;9102;53.548;9.926;2023-02-28T16:07:28;6.20;;;2.00;;